Time;durP1;ratioP1;P1;durP2;ratioP2;P2;SDS_P1;SDS_P2;PMS_P1;PMS_P2;Temp;Humidity;BMP_temperature;BMP_pressure;BME280_temperature;BME280_humidity;BME280_pressure;Samples;Min_cycle;Max_cycle;Signal;HPM_P1;HPM_P2
2021/09/17 00:17:24;;;;;;;2.05;1.40;;;;;;;;;;4725181;28;20206;-62
2021/09/17 00:19:50;;;;;;;2.50;1.30;;;;;;;;;;4135167;34;20135;-64
2021/09/17 00:22:16;;;;;;;1.58;1.48;;;;;;;;;;4136292;34;20132;-63
2021/09/17 00:24:41;;;;;;;2.05;1.42;;;;;;;;;;4135348;34;20467;-63
2021/09/17 00:27:07;;;;;;;2.97;1.30;;;;;;;;;;4136717;34;20219;-66
2021/09/17 00:29:33;;;;;;;3.47;1.40;;;;;;;;;;4136727;34;20432;-65
2021/09/17 00:31:59;;;;;;;1.10;1.10;;;;;;;;;;4135452;34;20123;-65
2021/09/17 00:34:25;;;;;;;1.35;1.30;;;;;;;;;;4135384;34;20160;-66
2021/09/17 00:36:51;;;;;;;1.50;1.40;;;;;;;;;;4135230;34;20255;-63
2021/09/17 00:39:17;;;;;;;1.42;1.33;;;;;;;;;;4136687;34;20098;-66
2021/09/17 00:44:31;;;;;;;2.53;1.15;;;;;;;;;;4158922;34;20211;-63
2021/09/17 00:46:57;;;;;;;1.98;1.48;;;;;;;;;;4159265;34;20147;-65
2021/09/17 00:49:24;;;;;;;3.47;1.50;;;;;;;;;;4156188;34;20095;-64
2021/09/17 00:51:49;;;;;;;2.22;1.85;;;;;;;;;;4158745;34;20554;-64
2021/09/17 00:54:16;;;;;;;1.83;1.70;;;;;;;;;;4152760;34;20462;-64
2021/09/17 00:56:42;;;;;;;1.60;1.50;;;;;;;;;;4155213;34;20145;-65
2021/09/17 00:59:08;;;;;;;1.90;1.80;;;;;;;;;;4154202;34;20098;-65
2021/09/17 01:01:36;;;;;;;2.85;1.73;;;;;;;;;;4161279;34;20252;-63
2021/09/17 01:04:02;;;;;;;2.53;1.50;;;;;;;;;;4161976;34;20115;-63
2021/09/17 01:06:29;;;;;;;1.30;1.20;;;;;;;;;;4160307;34;20227;-66
2021/09/17 01:08:55;;;;;;;2.00;1.70;;;;;;;;;;4155236;34;20219;-63
2021/09/17 01:11:20;;;;;;;1.62;1.50;;;;;;;;;;4148516;34;20114;-66
2021/09/17 01:13:46;;;;;;;1.55;1.45;;;;;;;;;;4148544;34;20618;-65
2021/09/17 01:16:12;;;;;;;1.48;1.37;;;;;;;;;;4148468;34;20218;-66
2021/09/17 01:18:38;;;;;;;1.60;1.50;;;;;;;;;;4160720;34;20552;-64
2021/09/17 01:21:04;;;;;;;2.12;1.70;;;;;;;;;;4163550;34;20119;-64
2021/09/17 01:23:30;;;;;;;2.45;1.60;;;;;;;;;;4159932;34;20689;-64
2021/09/17 01:25:56;;;;;;;2.80;1.58;;;;;;;;;;4156326;34;20115;-66
2021/09/17 01:28:27;;;;;;;2.53;2.00;;;;;;;;;;4149598;34;20195;-66
2021/09/17 01:30:53;;;;;;;3.05;1.70;;;;;;;;;;4159623;34;20119;-64
2021/09/17 01:33:18;;;;;;;1.60;1.50;;;;;;;;;;4148329;34;20215;-63
2021/09/17 01:35:44;;;;;;;3.78;1.75;;;;;;;;;;4148277;34;20199;-64
2021/09/17 01:38:11;;;;;;;4.80;1.80;;;;;;;;;;4149636;34;20171;-65
2021/09/17 01:40:36;;;;;;;2.37;1.52;;;;;;;;;;4149466;34;20195;-65
2021/09/17 01:43:03;;;;;;;4.75;1.83;;;;;;;;;;4149322;34;20162;-64
2021/09/17 01:45:28;;;;;;;1.92;1.70;;;;;;;;;;4149431;34;20245;-66
2021/09/17 01:47:54;;;;;;;3.90;2.00;;;;;;;;;;4149455;34;20186;-63
2021/09/17 01:50:20;;;;;;;2.92;2.58;;;;;;;;;;4137013;34;20123;-62
2021/09/17 01:52:46;;;;;;;2.83;1.70;;;;;;;;;;4149669;34;20126;-65
2021/09/17 01:55:12;;;;;;;2.05;1.83;;;;;;;;;;4148763;34;20146;-62
2021/09/17 01:57:38;;;;;;;3.17;1.77;;;;;;;;;;4149083;34;20524;-66
2021/09/17 02:00:05;;;;;;;2.22;1.70;;;;;;;;;;4136560;34;20119;-65
2021/09/17 02:02:31;;;;;;;2.62;2.00;;;;;;;;;;4138922;34;20123;-66
2021/09/17 02:04:57;;;;;;;2.08;1.55;;;;;;;;;;4151336;34;20126;-63
2021/09/17 02:07:23;;;;;;;5.75;1.90;;;;;;;;;;4149586;34;20587;-66
2021/09/17 02:09:49;;;;;;;2.20;1.83;;;;;;;;;;4147792;34;20559;-65
2021/09/17 02:12:15;;;;;;;3.37;2.00;;;;;;;;;;4149261;34;20595;-66
2021/09/17 02:14:41;;;;;;;2.47;2.17;;;;;;;;;;4149417;34;20119;-64
2021/09/17 02:17:07;;;;;;;2.72;1.80;;;;;;;;;;4149203;34;20250;-62
2021/09/17 02:19:33;;;;;;;2.55;1.98;;;;;;;;;;4147957;34;20131;-63
2021/09/17 02:21:59;;;;;;;2.85;2.08;;;;;;;;;;4149815;34;20120;-65
2021/09/17 02:24:25;;;;;;;2.65;2.12;;;;;;;;;;4151180;34;20110;-64
2021/09/17 02:26:51;;;;;;;1.62;1.50;;;;;;;;;;4151319;34;20166;-63
2021/09/17 02:29:17;;;;;;;1.50;1.40;;;;;;;;;;4138630;34;20100;-66
2021/09/17 02:31:43;;;;;;;1.90;1.55;;;;;;;;;;4151227;34;20107;-63
2021/09/17 02:34:09;;;;;;;1.62;1.52;;;;;;;;;;4151169;34;20139;-66
2021/09/17 02:36:35;;;;;;;2.37;1.60;;;;;;;;;;4151222;34;20555;-66
2021/09/17 02:39:01;;;;;;;2.20;1.62;;;;;;;;;;4151106;34;20452;-63
2021/09/17 02:41:27;;;;;;;1.87;1.70;;;;;;;;;;4151169;34;20229;-66
2021/09/17 02:43:53;;;;;;;2.15;1.52;;;;;;;;;;4155964;34;20137;-66
2021/09/17 02:46:18;;;;;;;1.67;1.58;;;;;;;;;;4164542;34;20549;-66
2021/09/17 02:48:44;;;;;;;1.70;1.60;;;;;;;;;;4164459;34;20574;-64
2021/09/17 02:51:13;;;;;;;2.90;1.87;;;;;;;;;;4164674;34;20099;-65
2021/09/17 02:53:39;;;;;;;2.08;1.85;;;;;;;;;;4161232;34;20099;-63
2021/09/17 02:56:05;;;;;;;2.37;1.90;;;;;;;;;;4155575;34;20115;-65
2021/09/17 02:58:31;;;;;;;2.75;1.95;;;;;;;;;;4151183;34;20099;-63
2021/09/17 03:00:57;;;;;;;1.98;1.77;;;;;;;;;;4151293;34;20689;-63
2021/09/17 03:03:23;;;;;;;2.28;1.98;;;;;;;;;;4151094;34;20113;-66
2021/09/17 03:05:49;;;;;;;2.62;1.95;;;;;;;;;;4151138;34;20459;-66
2021/09/17 03:08:14;;;;;;;3.72;2.10;;;;;;;;;;4150961;34;20226;-66
2021/09/17 03:10:41;;;;;;;4.95;2.00;;;;;;;;;;4150957;34;20203;-63
2021/09/17 03:13:07;;;;;;;2.75;2.08;;;;;;;;;;4150783;34;20142;-63
2021/09/17 03:15:32;;;;;;;2.42;2.00;;;;;;;;;;4150778;34;20159;-66
2021/09/17 03:17:58;;;;;;;4.05;1.70;;;;;;;;;;4150744;34;20226;-66
2021/09/17 03:20:24;;;;;;;4.07;1.67;;;;;;;;;;4150750;34;20119;-66
2021/09/17 03:22:50;;;;;;;1.90;1.67;;;;;;;;;;4303726;28;20173;-66
2021/09/17 03:25:16;;;;;;;6.50;2.03;;;;;;;;;;4148703;34;20115;-66
2021/09/17 03:27:42;;;;;;;1.45;1.30;;;;;;;;;;4149044;34;20149;-66
2021/09/17 03:30:08;;;;;;;1.23;1.12;;;;;;;;;;4150570;34;20119;-66
2021/09/17 03:32:34;;;;;;;6.43;1.85;;;;;;;;;;4150675;34;20158;-66
2021/09/17 03:35:00;;;;;;;1.60;1.50;;;;;;;;;;4150600;34;20542;-63
2021/09/17 03:37:26;;;;;;;1.27;1.17;;;;;;;;;;4150072;34;20123;-63
2021/09/17 03:39:52;;;;;;;2.37;1.12;;;;;;;;;;4148332;34;20977;-65
2021/09/17 03:42:18;;;;;;;1.70;1.52;;;;;;;;;;4149086;34;20123;-63
2021/09/17 03:44:43;;;;;;;1.65;1.50;;;;;;;;;;4149513;34;20111;-67
2021/09/17 03:47:09;;;;;;;4.90;1.40;;;;;;;;;;4148466;34;20126;-63
2021/09/17 03:49:35;;;;;;;2.10;1.40;;;;;;;;;;4148866;34;20131;-67
2021/09/17 03:52:01;;;;;;;1.40;1.30;;;;;;;;;;4148778;34;20138;-63
2021/09/17 03:54:27;;;;;;;1.10;1.10;;;;;;;;;;4148525;34;20569;-63
2021/09/17 03:56:56;;;;;;;2.85;1.20;;;;;;;;;;4148267;34;20128;-66
2021/09/17 03:59:22;;;;;;;1.40;1.30;;;;;;;;;;4148300;34;20131;-66
2021/09/17 04:01:49;;;;;;;1.37;1.27;;;;;;;;;;4150403;34;20289;-66
2021/09/17 04:04:15;;;;;;;1.58;1.48;;;;;;;;;;4135884;34;20556;-67
2021/09/17 04:06:42;;;;;;;1.50;1.40;;;;;;;;;;4141005;34;20111;-63
2021/09/17 04:09:12;;;;;;;1.70;1.40;;;;;;;;;;4150659;34;20127;-68
2021/09/17 04:11:38;;;;;;;1.50;1.40;;;;;;;;;;4137840;34;20126;-66
2021/09/17 04:14:04;;;;;;;3.92;1.35;;;;;;;;;;4150561;34;20211;-67
2021/09/17 04:16:30;;;;;;;5.32;1.80;;;;;;;;;;4149120;34;20126;-67
2021/09/17 04:18:56;;;;;;;2.87;1.65;;;;;;;;;;4150323;34;20458;-67
2021/09/17 04:21:22;;;;;;;3.37;2.20;;;;;;;;;;4160081;34;20215;-65
2021/09/17 04:23:48;;;;;;;6.32;2.12;;;;;;;;;;4149674;34;20139;-66
2021/09/17 04:26:14;;;;;;;3.53;1.83;;;;;;;;;;4150069;34;20126;-67
2021/09/17 04:28:40;;;;;;;2.70;1.92;;;;;;;;;;4148926;34;20143;-65
2021/09/17 04:31:05;;;;;;;1.55;1.45;;;;;;;;;;4150231;34;20530;-66
2021/09/17 04:33:31;;;;;;;2.37;1.60;;;;;;;;;;4150160;34;20119;-66
2021/09/17 04:35:57;;;;;;;1.45;1.35;;;;;;;;;;4150343;34;20208;-65
2021/09/17 04:38:24;;;;;;;2.65;1.30;;;;;;;;;;4149429;34;20150;-65
2021/09/17 04:40:50;;;;;;;2.47;1.90;;;;;;;;;;4150118;34;20120;-65
2021/09/17 04:43:16;;;;;;;3.50;1.60;;;;;;;;;;4148744;34;20119;-66
2021/09/17 04:45:41;;;;;;;1.60;1.50;;;;;;;;;;4148628;34;20132;-66
2021/09/17 04:48:12;;;;;;;2.42;1.65;;;;;;;;;;4149967;34;20564;-64
2021/09/17 04:50:38;;;;;;;2.62;1.90;;;;;;;;;;4148951;34;20111;-65
2021/09/17 04:53:04;;;;;;;2.60;1.70;;;;;;;;;;4149693;34;20478;-65
2021/09/17 04:55:29;;;;;;;4.22;2.10;;;;;;;;;;4148828;34;20219;-66
2021/09/17 04:57:55;;;;;;;3.33;2.03;;;;;;;;;;4148759;34;20632;-66
2021/09/17 05:00:21;;;;;;;2.58;2.12;;;;;;;;;;4147220;34;20111;-66
2021/09/17 05:02:47;;;;;;;2.37;1.77;;;;;;;;;;4136465;34;20137;-65
2021/09/17 05:05:13;;;;;;;2.10;1.60;;;;;;;;;;4136500;34;20204;-66
2021/09/17 05:07:39;;;;;;;2.05;1.67;;;;;;;;;;4136615;34;20126;-64
2021/09/17 05:10:06;;;;;;;2.00;1.77;;;;;;;;;;4135329;34;20130;-66
2021/09/17 05:12:34;;;;;;;4.35;2.03;;;;;;;;;;4135012;34;20133;-68
2021/09/17 05:15:01;;;;;;;2.15;1.50;;;;;;;;;;4135033;34;20126;-67
2021/09/17 05:17:27;;;;;;;2.37;1.70;;;;;;;;;;4138618;34;20130;-64
2021/09/17 05:19:53;;;;;;;1.60;1.50;;;;;;;;;;4149716;34;20121;-66
2021/09/17 05:22:19;;;;;;;2.47;1.52;;;;;;;;;;4149715;34;20114;-64
2021/09/17 05:24:45;;;;;;;2.00;1.50;;;;;;;;;;4149699;34;20777;-66
2021/09/17 05:27:14;;;;;;;1.70;1.40;;;;;;;;;;4149884;34;20517;-65
2021/09/17 05:29:41;;;;;;;2.75;1.33;;;;;;;;;;4150055;34;20463;-64
2021/09/17 05:32:07;;;;;;;2.53;1.60;;;;;;;;;;4149582;34;20195;-64
2021/09/17 05:34:34;;;;;;;2.75;1.67;;;;;;;;;;4149648;34;20099;-65
2021/09/17 05:37:00;;;;;;;2.62;1.70;;;;;;;;;;4151791;34;20111;-67
2021/09/17 05:39:26;;;;;;;3.75;1.73;;;;;;;;;;4151865;34;20110;-64
2021/09/17 05:41:52;;;;;;;5.53;2.47;;;;;;;;;;4151684;34;20119;-65
2021/09/17 05:44:21;;;;;;;3.45;1.62;;;;;;;;;;4151969;34;20208;-65
2021/09/17 05:46:47;;;;;;;3.10;1.80;;;;;;;;;;4151655;34;20107;-66
2021/09/17 05:49:13;;;;;;;4.28;1.60;;;;;;;;;;4150233;34;20518;-65
2021/09/17 05:51:40;;;;;;;1.83;1.62;;;;;;;;;;4151824;34;20659;-66
2021/09/17 05:54:06;;;;;;;4.53;1.92;;;;;;;;;;4151584;34;20515;-64
2021/09/17 05:56:32;;;;;;;1.98;1.67;;;;;;;;;;4151693;34;20096;-67
2021/09/17 05:58:58;;;;;;;1.75;1.52;;;;;;;;;;4151860;34;20106;-64
2021/09/17 06:01:24;;;;;;;2.45;1.70;;;;;;;;;;4151765;34;20615;-65
2021/09/17 06:03:50;;;;;;;2.28;1.77;;;;;;;;;;4151516;34;20111;-64
2021/09/17 06:06:18;;;;;;;1.50;1.40;;;;;;;;;;4151464;34;20131;-65
2021/09/17 06:08:44;;;;;;;2.62;1.65;;;;;;;;;;4151605;34;20491;-65
2021/09/17 06:11:11;;;;;;;1.67;1.50;;;;;;;;;;4150230;34;20103;-66
2021/09/17 06:13:37;;;;;;;2.10;1.42;;;;;;;;;;4151634;34;20246;-65
2021/09/17 06:16:03;;;;;;;1.85;1.40;;;;;;;;;;4151576;34;20127;-65
2021/09/17 06:18:31;;;;;;;2.47;1.65;;;;;;;;;;4151583;34;20103;-66
2021/09/17 06:20:59;;;;;;;3.20;1.85;;;;;;;;;;4151507;34;20534;-66
2021/09/17 06:23:27;;;;;;;2.33;1.75;;;;;;;;;;4150278;34;20104;-65
2021/09/17 06:26:37;;;;;;;2.17;1.55;;;;;;;;;;4150529;34;20548;-65
2021/09/17 06:29:24;;;;;;;2.35;1.60;;;;;;;;;;4149443;34;20432;-66
2021/09/17 06:31:56;;;;;;;1.65;1.45;;;;;;;;;;4138257;34;20629;-65
2021/09/17 06:34:25;;;;;;;2.50;1.75;;;;;;;;;;4151738;34;20119;-66
2021/09/17 06:36:56;;;;;;;2.85;1.52;;;;;;;;;;4148831;34;20107;-66
2021/09/17 06:39:23;;;;;;;5.40;2.00;;;;;;;;;;4151676;34;20196;-65
2021/09/17 06:41:50;;;;;;;1.52;1.40;;;;;;;;;;4151157;34;20111;-66
2021/09/17 06:44:16;;;;;;;2.70;1.73;;;;;;;;;;4151471;34;20138;-66
2021/09/17 06:46:44;;;;;;;1.85;1.70;;;;;;;;;;4150889;34;20107;-66
2021/09/17 06:49:11;;;;;;;2.65;1.62;;;;;;;;;;4150906;34;20133;-66
2021/09/17 06:51:38;;;;;;;8.15;2.35;;;;;;;;;;4148714;34;20127;-64
2021/09/17 06:54:07;;;;;;;2.75;1.92;;;;;;;;;;4144927;34;20095;-67
2021/09/17 06:56:37;;;;;;;1.50;1.40;;;;;;;;;;4149899;34;20118;-66
2021/09/17 06:59:07;;;;;;;3.60;1.42;;;;;;;;;;4150984;34;20107;-64
2021/09/17 07:01:40;;;;;;;3.03;1.42;;;;;;;;;;4151142;34;20106;-65
2021/09/17 07:04:09;;;;;;;1.80;1.60;;;;;;;;;;4148103;34;20180;-64
2021/09/17 07:06:39;;;;;;;1.52;1.42;;;;;;;;;;4146836;34;20118;-66
2021/09/17 07:09:06;;;;;;;1.95;1.70;;;;;;;;;;4149457;34;20118;-64
2021/09/17 07:11:33;;;;;;;2.20;1.62;;;;;;;;;;4149409;34;20498;-66
2021/09/17 07:14:00;;;;;;;2.10;1.90;;;;;;;;;;4138161;34;20474;-64
2021/09/17 07:16:28;;;;;;;2.10;1.90;;;;;;;;;;4148966;34;20235;-66
2021/09/17 07:18:54;;;;;;;4.57;1.90;;;;;;;;;;4148706;34;20122;-66
2021/09/17 07:21:21;;;;;;;2.60;1.83;;;;;;;;;;4150394;34;20186;-66
2021/09/17 07:23:47;;;;;;;2.05;1.85;;;;;;;;;;4149213;34;20099;-64
2021/09/17 07:26:13;;;;;;;2.03;1.83;;;;;;;;;;4151182;34;20564;-65
2021/09/17 07:28:43;;;;;;;2.80;1.92;;;;;;;;;;4149001;34;20230;-64
2021/09/17 07:31:13;;;;;;;2.95;1.75;;;;;;;;;;4149345;34;20248;-65
2021/09/17 07:33:39;;;;;;;1.70;1.60;;;;;;;;;;4149469;34;20122;-66
2021/09/17 07:36:05;;;;;;;4.05;1.80;;;;;;;;;;4149554;34;20232;-65
2021/09/17 07:38:31;;;;;;;2.97;1.90;;;;;;;;;;4150317;34;20135;-68
2021/09/17 07:40:58;;;;;;;5.40;2.92;;;;;;;;;;4138956;34;20217;-69
2021/09/17 07:43:24;;;;;;;2.70;1.90;;;;;;;;;;4137364;34;20138;-68
2021/09/17 07:45:50;;;;;;;1.50;1.40;;;;;;;;;;4137153;34;20475;-69
2021/09/17 07:48:16;;;;;;;2.05;1.75;;;;;;;;;;4137329;34;20191;-68
2021/09/17 07:50:42;;;;;;;2.20;1.70;;;;;;;;;;4137456;34;20108;-65
2021/09/17 07:53:09;;;;;;;2.45;1.60;;;;;;;;;;4137085;34;20142;-65
2021/09/17 07:55:35;;;;;;;2.78;1.70;;;;;;;;;;4137449;34;20107;-65
2021/09/17 07:58:05;;;;;;;1.83;1.70;;;;;;;;;;4135455;34;20108;-67
2021/09/17 08:00:31;;;;;;;2.33;1.50;;;;;;;;;;4124277;34;20114;-67
2021/09/17 08:02:57;;;;;;;1.67;1.55;;;;;;;;;;4136923;34;20118;-65
2021/09/17 08:05:24;;;;;;;1.70;1.60;;;;;;;;;;4135561;34;20199;-64
2021/09/17 08:07:53;;;;;;;2.53;1.50;;;;;;;;;;4140130;34;20099;-67
2021/09/17 08:10:20;;;;;;;2.95;1.42;;;;;;;;;;4140860;34;20558;-64
2021/09/17 08:12:46;;;;;;;1.48;1.30;;;;;;;;;;4138880;34;20135;-66
2021/09/17 08:15:13;;;;;;;2.50;1.85;;;;;;;;;;4124630;34;20131;-63
2021/09/17 08:17:45;;;;;;;1.80;1.52;;;;;;;;;;4135479;34;20137;-65
2021/09/17 08:20:12;;;;;;;2.65;1.50;;;;;;;;;;4126383;34;20531;-65
2021/09/17 08:22:38;;;;;;;1.65;1.55;;;;;;;;;;4136961;34;20107;-65
2021/09/17 08:25:06;;;;;;;1.50;1.40;;;;;;;;;;4136888;34;20114;-68
2021/09/17 08:27:32;;;;;;;1.60;1.50;;;;;;;;;;4136810;34;20137;-63
2021/09/17 08:29:58;;;;;;;2.55;1.67;;;;;;;;;;4136700;34;20142;-63
2021/09/17 08:32:24;;;;;;;1.60;1.50;;;;;;;;;;4135181;34;20123;-63
2021/09/17 08:34:50;;;;;;;1.60;1.50;;;;;;;;;;4136675;34;20103;-62
2021/09/17 08:37:17;;;;;;;4.07;1.58;;;;;;;;;;4141827;28;20100;-63
2021/09/17 08:39:43;;;;;;;1.60;1.50;;;;;;;;;;4145588;34;20512;-63
2021/09/17 08:42:09;;;;;;;3.53;1.58;;;;;;;;;;4136641;34;20099;-62
2021/09/17 08:44:36;;;;;;;2.15;1.65;;;;;;;;;;4136737;34;21034;-62
2021/09/17 08:47:02;;;;;;;1.50;1.40;;;;;;;;;;4136216;34;20092;-63
2021/09/17 08:49:41;;;;;;;3.08;1.95;;;;;;;;;;4137272;34;20095;-65
2021/09/17 08:52:10;;;;;;;3.08;1.80;;;;;;;;;;4123046;34;20103;-64
2021/09/17 08:54:36;;;;;;;3.05;2.05;;;;;;;;;;4136657;34;20115;-65
2021/09/17 08:57:02;;;;;;;1.70;1.60;;;;;;;;;;4123187;34;20115;-65
2021/09/17 08:59:28;;;;;;;1.83;1.62;;;;;;;;;;4136293;34;20115;-62
2021/09/17 09:01:54;;;;;;;2.78;2.05;;;;;;;;;;4134649;34;20119;-63
2021/09/17 09:04:29;;;;;;;3.97;1.90;;;;;;;;;;4133006;34;20131;-66
2021/09/17 09:07:16;;;;;;;1.92;1.73;;;;;;;;;;4136680;34;20104;-66
2021/09/17 09:09:47;;;;;;;1.80;1.50;;;;;;;;;;4147975;34;20135;-64
2021/09/17 09:12:13;;;;;;;2.25;1.55;;;;;;;;;;4149457;34;20117;-66
2021/09/17 09:14:39;;;;;;;2.92;1.67;;;;;;;;;;4148189;34;20123;-62
2021/09/17 09:17:05;;;;;;;2.90;1.90;;;;;;;;;;4158965;34;20106;-66
2021/09/17 09:19:37;;;;;;;3.10;1.70;;;;;;;;;;4146143;34;20214;-64
2021/09/17 09:28:28;;;;;;;1.65;1.50;;;;;;;;;;4144307;34;20143;-66
2021/09/17 09:31:22;;;;;;;3.47;1.40;;;;;;;;;;4134163;34;20095;-63
2021/09/17 09:33:49;;;;;;;1.65;1.40;;;;;;;;;;4142937;34;20443;-63
2021/09/17 09:36:19;;;;;;;1.23;1.17;;;;;;;;;;4152073;34;20115;-65
2021/09/17 09:38:48;;;;;;;1.75;1.65;;;;;;;;;;4136170;34;20514;-66
2021/09/17 09:41:23;;;;;;;1.98;1.70;;;;;;;;;;4135810;34;20135;-62
2021/09/17 09:43:52;;;;;;;2.97;1.70;;;;;;;;;;4136027;34;20099;-63
2021/09/17 09:46:24;;;;;;;2.83;1.48;;;;;;;;;;4135858;34;20623;-65
2021/09/17 09:48:55;;;;;;;2.03;1.50;;;;;;;;;;4141724;34;20595;-65
2021/09/17 09:51:21;;;;;;;2.17;1.58;;;;;;;;;;4147206;34;20139;-66
2021/09/17 09:53:47;;;;;;;4.25;1.58;;;;;;;;;;4138578;34;20130;-65
2021/09/17 09:56:14;;;;;;;5.35;1.92;;;;;;;;;;4128829;34;20103;-61
2021/09/17 09:58:42;;;;;;;2.92;2.35;;;;;;;;;;4142191;34;20116;-66
2021/09/17 10:01:08;;;;;;;4.85;1.60;;;;;;;;;;4134463;34;20519;-63
2021/09/17 10:03:34;;;;;;;4.28;2.22;;;;;;;;;;4145437;34;20197;-63
2021/09/17 10:06:00;;;;;;;5.22;2.45;;;;;;;;;;4145479;34;20114;-62
2021/09/17 10:08:26;;;;;;;3.70;2.50;;;;;;;;;;4134170;34;20100;-63
2021/09/17 10:10:53;;;;;;;3.05;1.90;;;;;;;;;;4135665;34;20111;-63
2021/09/17 10:13:22;;;;;;;2.87;1.58;;;;;;;;;;4134249;34;20118;-66
2021/09/17 10:15:51;;;;;;;1.87;1.60;;;;;;;;;;4134290;34;20482;-65
2021/09/17 10:18:18;;;;;;;1.50;1.40;;;;;;;;;;4134024;34;20128;-66
2021/09/17 10:20:45;;;;;;;1.70;1.60;;;;;;;;;;4145567;34;20139;-61
2021/09/17 10:23:27;;;;;;;2.72;2.08;;;;;;;;;;4137141;34;20095;-62
2021/09/17 10:26:04;;;;;;;2.35;1.85;;;;;;;;;;4137666;34;20103;-66
2021/09/17 10:28:30;;;;;;;2.15;1.52;;;;;;;;;;4137631;34;20130;-66
2021/09/17 10:31:16;;;;;;;1.55;1.45;;;;;;;;;;4137573;34;20116;-67
2021/09/17 10:33:42;;;;;;;1.83;1.62;;;;;;;;;;4137885;34;20119;-67
2021/09/17 10:36:08;;;;;;;1.50;1.40;;;;;;;;;;4147465;34;20126;-67
2021/09/17 10:38:34;;;;;;;3.62;2.00;;;;;;;;;;4137653;34;20118;-67
2021/09/17 10:41:11;;;;;;;2.25;1.60;;;;;;;;;;4137545;34;20119;-68
2021/09/17 10:43:46;;;;;;;1.95;1.75;;;;;;;;;;4147049;34;20214;-66
2021/09/17 10:46:21;;;;;;;1.90;1.70;;;;;;;;;;4137663;34;20545;-63
2021/09/17 10:48:56;;;;;;;;;;;;;;;;;;4138175;34;20493;-68
2021/09/17 10:51:35;;;;;;;2.00;1.67;;;;;;;;;;4138117;34;20402;-66
2021/09/17 10:54:08;;;;;;;1.98;1.70;;;;;;;;;;4137574;34;20123;-64
2021/09/17 10:56:48;;;;;;;1.60;1.50;;;;;;;;;;4137653;34;20219;-63
2021/09/17 10:59:22;;;;;;;3.03;1.80;;;;;;;;;;4137631;34;20134;-62
2021/09/17 11:02:08;;;;;;;1.60;1.50;;;;;;;;;;4137514;34;20099;-64
2021/09/17 11:04:46;;;;;;;1.55;1.45;;;;;;;;;;4137453;34;20162;-65
2021/09/17 11:07:17;;;;;;;2.80;1.60;;;;;;;;;;4126414;34;20158;-67
2021/09/17 11:09:46;;;;;;;2.33;1.70;;;;;;;;;;4137466;34;20126;-64
2021/09/17 11:12:38;;;;;;;2.53;1.65;;;;;;;;;;4146587;34;20137;-63
2021/09/17 11:15:18;;;;;;;2.53;1.77;;;;;;;;;;4137602;34;20115;-64
2021/09/17 11:17:58;;;;;;;2.10;1.65;;;;;;;;;;4136369;34;20095;-63
2021/09/17 11:20:25;;;;;;;2.30;1.70;;;;;;;;;;4137473;34;20620;-62
2021/09/17 11:23:05;;;;;;;2.10;1.90;;;;;;;;;;4137412;34;20751;-62
2021/09/17 11:25:39;;;;;;;2.28;1.90;;;;;;;;;;4135903;34;20142;-65
2021/09/17 11:28:27;;;;;;;2.00;1.30;;;;;;;;;;4146922;34;20118;-62
2021/09/17 11:30:53;;;;;;;1.50;1.40;;;;;;;;;;4137220;34;20094;-67
2021/09/17 11:33:19;;;;;;;1.40;1.30;;;;;;;;;;4146229;34;20119;-63
2021/09/17 11:35:45;;;;;;;2.12;1.30;;;;;;;;;;4137392;34;20103;-67
2021/09/17 11:38:11;;;;;;;2.03;1.70;;;;;;;;;;4137174;34;20476;-67
2021/09/17 11:40:54;;;;;;;1.80;1.70;;;;;;;;;;4137239;34;20115;-62
2021/09/17 11:43:20;;;;;;;2.58;1.70;;;;;;;;;;4136052;34;20102;-64
2021/09/17 11:45:47;;;;;;;3.28;1.95;;;;;;;;;;4137258;34;20103;-65
2021/09/17 11:48:24;;;;;;;3.55;1.90;;;;;;;;;;4137351;34;20107;-65
2021/09/17 11:50:51;;;;;;;3.22;2.03;;;;;;;;;;4146981;34;20138;-66
2021/09/17 11:53:16;;;;;;;4.82;1.70;;;;;;;;;;4137108;34;20466;-65
2021/09/17 11:55:43;;;;;;;3.83;1.87;;;;;;;;;;4147210;34;20514;-66
2021/09/17 11:58:08;;;;;;;2.33;2.12;;;;;;;;;;4137137;34;20110;-62
2021/09/17 12:00:34;;;;;;;3.97;1.62;;;;;;;;;;4137017;34;20104;-66
2021/09/17 12:03:11;;;;;;;2.75;1.87;;;;;;;;;;4137449;34;20115;-63
2021/09/17 12:05:41;;;;;;;1.62;1.40;;;;;;;;;;4146205;34;20116;-62
2021/09/17 12:08:08;;;;;;;1.50;1.40;;;;;;;;;;4146689;34;20146;-62
2021/09/17 12:10:35;;;;;;;3.12;1.50;;;;;;;;;;4146838;34;20130;-65
2021/09/17 12:13:20;;;;;;;4.30;1.73;;;;;;;;;;4146838;34;20095;-65
2021/09/17 12:15:46;;;;;;;3.37;1.70;;;;;;;;;;4136881;34;20191;-66
2021/09/17 12:18:17;;;;;;;3.05;1.55;;;;;;;;;;4136931;34;20100;-65
2021/09/17 12:20:45;;;;;;;2.78;1.80;;;;;;;;;;4146690;34;20119;-63
2021/09/17 12:23:14;;;;;;;3.92;1.80;;;;;;;;;;4146909;34;20116;-65
2021/09/17 12:25:40;;;;;;;2.95;1.90;;;;;;;;;;4146624;34;20154;-65
2021/09/17 12:28:07;;;;;;;1.70;1.60;;;;;;;;;;4146486;34;20114;-65
2021/09/17 12:30:35;;;;;;;2.03;1.73;;;;;;;;;;4137005;34;20131;-63
2021/09/17 12:33:16;;;;;;;4.20;1.90;;;;;;;;;;4136847;34;20088;-65
2021/09/17 12:35:43;;;;;;;3.35;2.37;;;;;;;;;;4137063;34;20127;-65
2021/09/17 12:38:10;;;;;;;2.85;2.45;;;;;;;;;;4137003;34;20183;-64
2021/09/17 12:40:41;;;;;;;3.20;2.90;;;;;;;;;;4136959;34;20208;-64
2021/09/17 12:43:12;;;;;;;2.37;1.85;;;;;;;;;;4146460;34;20116;-69
2021/09/17 12:45:40;;;;;;;2.53;1.65;;;;;;;;;;4136068;34;20107;-66
2021/09/17 12:48:06;;;;;;;3.97;2.22;;;;;;;;;;4146250;34;20454;-67
2021/09/17 12:50:38;;;;;;;3.92;2.62;;;;;;;;;;4136597;34;20116;-64
2021/09/17 12:53:09;;;;;;;3.75;2.97;;;;;;;;;;4136676;34;20143;-65
2021/09/17 12:55:35;;;;;;;3.80;2.65;;;;;;;;;;4136712;34;20359;-65
2021/09/17 12:58:04;;;;;;;2.75;2.37;;;;;;;;;;4136859;34;20103;-66
2021/09/17 13:00:35;;;;;;;3.70;2.95;;;;;;;;;;4146683;34;20482;-67
2021/09/17 13:03:04;;;;;;;5.03;3.20;;;;;;;;;;4134856;34;20126;-64
2021/09/17 13:05:34;;;;;;;3.83;2.87;;;;;;;;;;4142374;34;20538;-67
2021/09/17 13:08:00;;;;;;;4.87;3.08;;;;;;;;;;4142964;34;20114;-67
2021/09/17 13:10:28;;;;;;;4.10;2.90;;;;;;;;;;4150194;34;20134;-63
2021/09/17 13:12:54;;;;;;;4.40;2.87;;;;;;;;;;4149364;34;20564;-64
2021/09/17 13:15:20;;;;;;;2.97;2.20;;;;;;;;;;4136561;34;20601;-64
2021/09/17 13:17:46;;;;;;;2.47;2.28;;;;;;;;;;4139044;34;20204;-64
2021/09/17 13:20:12;;;;;;;2.65;2.45;;;;;;;;;;4148294;34;20212;-64
2021/09/17 13:22:38;;;;;;;3.78;2.95;;;;;;;;;;4136490;34;20468;-65
2021/09/17 13:25:05;;;;;;;2.90;2.40;;;;;;;;;;4135138;34;20107;-64
2021/09/17 13:27:31;;;;;;;2.78;2.30;;;;;;;;;;4140940;34;20087;-65
2021/09/17 13:29:57;;;;;;;2.40;2.20;;;;;;;;;;4138753;34;20205;-64
2021/09/17 13:32:25;;;;;;;2.42;2.12;;;;;;;;;;4148645;34;20127;-63
2021/09/17 13:34:52;;;;;;;3.17;2.25;;;;;;;;;;4157204;34;20131;-67
2021/09/17 13:37:18;;;;;;;2.70;2.10;;;;;;;;;;4136437;34;20124;-66
2021/09/17 13:39:44;;;;;;;2.30;2.10;;;;;;;;;;4136266;34;20118;-66
2021/09/17 13:42:10;;;;;;;2.45;2.12;;;;;;;;;;4136088;34;20210;-66
2021/09/17 13:44:36;;;;;;;2.60;2.40;;;;;;;;;;4146011;34;20126;-66
2021/09/17 13:47:02;;;;;;;3.22;2.37;;;;;;;;;;4145767;34;20211;-63
2021/09/17 13:49:28;;;;;;;3.08;2.62;;;;;;;;;;4136204;34;20121;-64
2021/09/17 13:51:54;;;;;;;2.97;2.47;;;;;;;;;;4146236;34;20276;-67
2021/09/17 13:54:20;;;;;;;3.65;2.50;;;;;;;;;;4134954;34;20143;-69
2021/09/17 13:56:46;;;;;;;6.65;2.70;;;;;;;;;;4143893;34;20207;-65
2021/09/17 13:59:12;;;;;;;3.83;2.97;;;;;;;;;;4146055;34;20216;-68
2021/09/17 14:01:38;;;;;;;4.28;3.20;;;;;;;;;;4138043;34;20223;-66
2021/09/17 14:04:07;;;;;;;6.03;3.40;;;;;;;;;;4146831;34;20227;-67
2021/09/17 14:06:33;;;;;;;4.20;3.53;;;;;;;;;;4151777;34;20545;-65
2021/09/17 14:08:59;;;;;;;3.65;3.28;;;;;;;;;;4151785;34;20126;-66
2021/09/17 14:11:25;;;;;;;4.20;3.03;;;;;;;;;;4148728;34;20103;-68
2021/09/17 14:13:51;;;;;;;3.70;3.00;;;;;;;;;;4136720;34;20130;-65
2021/09/17 14:16:17;;;;;;;5.70;2.72;;;;;;;;;;4138673;34;20139;-66
2021/09/17 14:18:43;;;;;;;4.55;2.70;;;;;;;;;;4144601;34;20454;-64
2021/09/17 14:21:09;;;;;;;8.98;2.53;;;;;;;;;;4145561;34;20126;-64
2021/09/17 14:23:35;;;;;;;3.25;2.58;;;;;;;;;;4136682;34;20127;-66
2021/09/17 14:26:01;;;;;;;3.50;2.40;;;;;;;;;;4144997;34;20123;-68
2021/09/17 14:28:27;;;;;;;3.37;2.17;;;;;;;;;;4143909;34;20118;-66
2021/09/17 14:30:53;;;;;;;6.10;2.10;;;;;;;;;;4146959;34;20142;-67
2021/09/17 14:33:19;;;;;;;3.53;2.20;;;;;;;;;;4137976;34;20177;-64
2021/09/17 14:35:45;;;;;;;7.40;2.50;;;;;;;;;;4143856;34;20102;-65
2021/09/17 14:38:11;;;;;;;5.75;2.60;;;;;;;;;;4161303;34;20114;-64
2021/09/17 14:40:38;;;;;;;2.62;2.20;;;;;;;;;;4151151;34;20194;-69
2021/09/17 14:43:05;;;;;;;3.85;2.30;;;;;;;;;;4160055;34;20126;-65
2021/09/17 14:45:30;;;;;;;4.32;2.42;;;;;;;;;;4136522;34;20505;-66
2021/09/17 14:47:56;;;;;;;5.20;2.33;;;;;;;;;;4137607;34;20131;-64
2021/09/17 14:50:22;;;;;;;4.93;2.60;;;;;;;;;;4137597;34;20531;-67
2021/09/17 14:52:48;;;;;;;3.65;2.53;;;;;;;;;;4136447;34;20111;-63
2021/09/17 14:55:14;;;;;;;5.15;2.87;;;;;;;;;;4137625;34;20546;-64
2021/09/17 14:57:40;;;;;;;4.85;3.10;;;;;;;;;;4136194;34;20116;-69
2021/09/17 15:00:06;;;;;;;5.32;2.80;;;;;;;;;;4138097;34;20123;-68
2021/09/17 15:02:32;;;;;;;6.15;4.05;;;;;;;;;;4151266;34;20667;-65
2021/09/17 15:04:58;;;;;;;10.15;5.00;;;;;;;;;;4151074;34;20115;-67
2021/09/17 15:07:24;;;;;;;7.62;4.85;;;;;;;;;;4150644;34;20110;-67
2021/09/17 15:09:50;;;;;;;10.18;5.78;;;;;;;;;;4150830;34;20169;-67
2021/09/17 15:12:17;;;;;;;11.00;6.20;;;;;;;;;;4160946;34;20105;-69